Time;durP1;ratioP1;P1;durP2;ratioP2;P2;SDS_P1;SDS_P2;PMS_P1;PMS_P2;Temp;Humidity;BMP_temperature;BMP_pressure;BME280_temperature;BME280_humidity;BME280_pressure;Samples;Min_cycle;Max_cycle;Signal;HPM_P1;HPM_P2
2022/02/26 00:47:49;;;;;;;15.43;10.27;;;;;;;;;;6203067;23;20087;-72
2022/02/26 00:50:16;;;;;;;17.40;13.13;;;;;;;;;;6202443;23;20104;-71
2022/02/26 00:52:42;;;;;;;17.00;11.73;;;;;;;;;;6186141;23;20036;-73
2022/02/26 00:55:08;;;;;;;19.40;13.70;;;;;;;;;;6212607;23;20027;-72
2022/02/26 00:57:34;;;;;;;13.07;11.00;;;;;;;;;;6186131;23;20013;-73
2022/02/26 01:00:00;;;;;;;17.35;11.35;;;;;;;;;;6212335;23;20089;-72
2022/02/26 01:02:26;;;;;;;19.80;13.50;;;;;;;;;;6186358;23;20008;-72
2022/02/26 01:04:52;;;;;;;17.92;12.82;;;;;;;;;;6212246;23;20255;-73
2022/02/26 01:07:18;;;;;;;18.80;12.15;;;;;;;;;;6187207;23;20384;-71
2022/02/26 01:09:44;;;;;;;17.58;12.85;;;;;;;;;;6215784;23;20016;-72
2022/02/26 01:12:10;;;;;;;16.67;11.68;;;;;;;;;;6213385;23;20009;-73
2022/02/26 01:14:36;;;;;;;10.55;8.35;;;;;;;;;;6212848;23;20020;-72
2022/02/26 01:17:02;;;;;;;12.55;9.13;;;;;;;;;;6186936;23;20020;-73
2022/02/26 01:19:28;;;;;;;14.25;11.02;;;;;;;;;;6212714;23;20476;-71
2022/02/26 01:21:54;;;;;;;13.57;7.32;;;;;;;;;;6211943;23;20012;-73
2022/02/26 01:24:20;;;;;;;11.70;7.43;;;;;;;;;;6186037;23;20077;-74
2022/02/26 01:26:46;;;;;;;14.95;9.25;;;;;;;;;;6185366;23;20015;-73
2022/02/26 01:29:12;;;;;;;9.57;8.60;;;;;;;;;;6185949;23;20023;-73
2022/02/26 01:31:38;;;;;;;19.92;11.82;;;;;;;;;;6211225;23;20017;-73
2022/02/26 01:34:04;;;;;;;12.48;10.00;;;;;;;;;;6186094;23;20043;-73
2022/02/26 01:36:30;;;;;;;12.45;10.13;;;;;;;;;;6212164;23;20020;-73
2022/02/26 01:38:56;;;;;;;12.95;9.65;;;;;;;;;;6185820;23;20009;-73
2022/02/26 01:41:22;;;;;;;12.57;7.75;;;;;;;;;;6211951;23;20055;-72
2022/02/26 01:43:48;;;;;;;19.05;12.38;;;;;;;;;;6161076;23;20407;-73
2022/02/26 01:46:14;;;;;;;17.60;11.60;;;;;;;;;;6212090;23;20017;-73
2022/02/26 01:48:40;;;;;;;17.00;11.63;;;;;;;;;;6211904;23;20409;-73
2022/02/26 01:51:07;;;;;;;22.75;12.18;;;;;;;;;;6212221;23;20017;-72
2022/02/26 01:53:32;;;;;;;20.88;11.85;;;;;;;;;;6212278;23;20132;-73
2022/02/26 01:55:58;;;;;;;19.85;11.90;;;;;;;;;;6211663;23;20067;-73
2022/02/26 01:58:24;;;;;;;18.83;13.02;;;;;;;;;;6185962;23;20013;-74
2022/02/26 02:00:50;;;;;;;19.13;12.68;;;;;;;;;;6211991;23;20446;-73
2022/02/26 02:03:16;;;;;;;19.05;11.68;;;;;;;;;;6185791;23;20005;-73
2022/02/26 02:05:43;;;;;;;18.83;13.73;;;;;;;;;;6185582;23;20460;-73
2022/02/26 02:08:10;;;;;;;17.42;10.88;;;;;;;;;;6185669;23;20507;-72
2022/02/26 02:10:36;;;;;;;13.20;10.60;;;;;;;;;;6185602;23;20337;-72
2022/02/26 02:13:02;;;;;;;14.05;11.13;;;;;;;;;;6211855;23;20012;-73
2022/02/26 02:15:34;;;;;;;15.02;10.18;;;;;;;;;;6135975;23;20025;-72
2022/02/26 02:18:00;;;;;;;17.85;11.75;;;;;;;;;;6211899;23;20020;-73
2022/02/26 02:20:26;;;;;;;15.50;11.05;;;;;;;;;;6211763;23;20009;-72
2022/02/26 02:22:52;;;;;;;17.60;12.07;;;;;;;;;;6211704;23;20135;-71
2022/02/26 02:25:18;;;;;;;11.63;10.20;;;;;;;;;;6160272;23;20060;-72
2022/02/26 02:27:44;;;;;;;13.82;10.80;;;;;;;;;;6184822;23;20072;-72
2022/02/26 02:30:10;;;;;;;14.93;11.02;;;;;;;;;;6160734;23;20017;-72
2022/02/26 02:32:36;;;;;;;15.10;11.85;;;;;;;;;;6211946;23;20473;-73
2022/02/26 02:35:03;;;;;;;13.10;9.95;;;;;;;;;;6184636;23;20043;-73
2022/02/26 02:37:28;;;;;;;19.42;11.63;;;;;;;;;;6136197;23;20019;-73
2022/02/26 02:39:54;;;;;;;17.70;10.73;;;;;;;;;;6211689;23;20013;-73
2022/02/26 02:42:20;;;;;;;17.98;11.98;;;;;;;;;;6185975;23;20384;-73
2022/02/26 02:44:46;;;;;;;14.35;11.05;;;;;;;;;;6211684;23;20012;-74
2022/02/26 02:47:12;;;;;;;17.13;11.40;;;;;;;;;;6185334;23;20070;-72
2022/02/26 02:49:38;;;;;;;19.52;12.73;;;;;;;;;;6211851;23;20477;-72
2022/02/26 02:52:04;;;;;;;16.75;11.27;;;;;;;;;;6211541;23;20008;-73
2022/02/26 02:54:30;;;;;;;13.05;11.32;;;;;;;;;;6212261;23;20050;-74
2022/02/26 02:56:56;;;;;;;16.13;12.52;;;;;;;;;;6186067;23;20017;-73
2022/02/26 02:59:22;;;;;;;15.93;11.63;;;;;;;;;;6187473;23;20074;-72
2022/02/26 03:01:47;;;;;;;15.50;10.32;;;;;;;;;;6186366;23;20016;-72
2022/02/26 03:04:13;;;;;;;7.88;7.05;;;;;;;;;;6186679;23;20031;-74
2022/02/26 03:06:40;;;;;;;15.18;10.65;;;;;;;;;;6212376;23;20017;-73
2022/02/26 03:09:06;;;;;;;14.48;9.40;;;;;;;;;;6185337;23;20095;-73
2022/02/26 03:11:32;;;;;;;9.82;8.50;;;;;;;;;;6186503;23;20020;-73
2022/02/26 03:13:58;;;;;;;20.42;12.20;;;;;;;;;;6186874;23;20019;-72
2022/02/26 03:16:24;;;;;;;17.02;11.75;;;;;;;;;;6188390;23;20048;-73
2022/02/26 03:18:50;;;;;;;13.57;11.52;;;;;;;;;;6219874;23;20012;-74
2022/02/26 03:21:16;;;;;;;20.40;12.15;;;;;;;;;;6192671;23;20070;-73
2022/02/26 03:23:42;;;;;;;20.40;12.10;;;;;;;;;;6192547;23;20012;-74
2022/02/26 03:26:08;;;;;;;16.80;12.07;;;;;;;;;;6220946;23;20013;-72
2022/02/26 03:28:34;;;;;;;18.83;12.80;;;;;;;;;;6168802;23;20039;-74
2022/02/26 03:31:01;;;;;;;21.13;12.50;;;;;;;;;;6188981;23;20483;-74
2022/02/26 03:33:27;;;;;;;14.40;10.77;;;;;;;;;;6214413;23;20047;-71
2022/02/26 03:35:53;;;;;;;24.45;15.18;;;;;;;;;;6187183;23;20111;-73
2022/02/26 03:38:19;;;;;;;14.57;11.48;;;;;;;;;;6188275;23;20012;-74
2022/02/26 03:40:45;;;;;;;16.42;11.82;;;;;;;;;;6161858;23;20024;-74
2022/02/26 03:43:11;;;;;;;17.23;12.07;;;;;;;;;;6187830;23;20009;-73
2022/02/26 03:45:37;;;;;;;13.35;10.77;;;;;;;;;;6188416;23;20028;-72
2022/02/26 03:48:03;;;;;;;13.82;11.48;;;;;;;;;;6213379;23;20020;-73
2022/02/26 03:50:29;;;;;;;14.63;9.63;;;;;;;;;;6187005;23;20012;-73
2022/02/26 03:52:55;;;;;;;18.38;11.68;;;;;;;;;;6213238;23;20463;-72
2022/02/26 03:55:21;;;;;;;22.80;12.63;;;;;;;;;;6213480;23;20025;-73
2022/02/26 03:57:46;;;;;;;21.88;14.18;;;;;;;;;;6186698;23;20382;-73
2022/02/26 04:00:13;;;;;;;18.77;13.65;;;;;;;;;;6185493;23;20032;-73
2022/02/26 04:02:39;;;;;;;20.27;13.02;;;;;;;;;;6186409;23;20104;-74
2022/02/26 04:05:05;;;;;;;15.32;11.55;;;;;;;;;;6186817;23;20016;-73
2022/02/26 04:07:31;;;;;;;15.25;11.77;;;;;;;;;;6215633;23;20116;-72
2022/02/26 04:09:57;;;;;;;13.65;11.07;;;;;;;;;;6215523;23;20036;-73
2022/02/26 04:12:23;;;;;;;18.58;12.88;;;;;;;;;;6216042;23;20013;-72
2022/02/26 04:14:49;;;;;;;17.13;12.52;;;;;;;;;;6188885;23;20421;-74
2022/02/26 04:17:14;;;;;;;17.17;12.77;;;;;;;;;;6215087;23;20008;-73
2022/02/26 04:19:40;;;;;;;17.25;12.07;;;;;;;;;;6216409;23;20013;-74
2022/02/26 04:22:06;;;;;;;16.88;10.95;;;;;;;;;;6214914;23;20353;-73
2022/02/26 04:24:32;;;;;;;18.85;12.02;;;;;;;;;;6187459;23;20016;-72
2022/02/26 04:26:58;;;;;;;13.40;10.27;;;;;;;;;;6213760;23;20020;-74
2022/02/26 04:29:24;;;;;;;12.50;10.02;;;;;;;;;;6214368;23;20080;-73
2022/02/26 04:31:50;;;;;;;14.82;10.50;;;;;;;;;;6187099;23;20120;-73
2022/02/26 04:34:16;;;;;;;19.48;10.13;;;;;;;;;;6213622;23;20009;-73
2022/02/26 04:36:42;;;;;;;15.77;9.85;;;;;;;;;;6213577;23;20013;-72
2022/02/26 04:39:08;;;;;;;12.43;10.02;;;;;;;;;;6186397;23;20154;-73
2022/02/26 04:41:34;;;;;;;15.68;11.00;;;;;;;;;;6213241;23;20396;-71
2022/02/26 04:44:00;;;;;;;11.93;8.88;;;;;;;;;;6187040;23;20020;-74
2022/02/26 04:46:26;;;;;;;12.32;9.30;;;;;;;;;;6216974;23;20012;-75
2022/02/26 04:48:52;;;;;;;10.57;9.02;;;;;;;;;;6186291;23;20104;-74
2022/02/26 04:51:18;;;;;;;18.05;11.82;;;;;;;;;;6161944;23;20397;-73
2022/02/26 04:53:44;;;;;;;14.25;10.35;;;;;;;;;;6213613;23;20038;-73
2022/02/26 04:56:10;;;;;;;16.58;10.73;;;;;;;;;;6185855;23;20027;-74
2022/02/26 04:58:36;;;;;;;13.43;9.95;;;;;;;;;;6186859;23;20099;-73
2022/02/26 05:01:02;;;;;;;27.52;10.98;;;;;;;;;;6213844;23;20012;-72
2022/02/26 05:03:28;;;;;;;11.23;8.18;;;;;;;;;;6214263;23;20013;-73
2022/02/26 05:05:54;;;;;;;11.95;9.80;;;;;;;;;;6188091;23;20059;-73
2022/02/26 05:08:20;;;;;;;15.65;10.68;;;;;;;;;;6214993;23;20083;-73
2022/02/26 05:10:46;;;;;;;14.90;11.75;;;;;;;;;;6188272;23;20015;-73
2022/02/26 05:13:12;;;;;;;15.52;10.85;;;;;;;;;;6187917;23;20020;-72
2022/02/26 05:15:38;;;;;;;14.02;11.43;;;;;;;;;;6137796;23;20027;-73
2022/02/26 05:18:04;;;;;;;22.40;13.27;;;;;;;;;;6186584;23;20360;-73
2022/02/26 05:20:30;;;;;;;23.75;13.13;;;;;;;;;;6213577;23;20488;-74
2022/02/26 05:22:59;;;;;;;18.67;12.13;;;;;;;;;;6214670;23;20008;-73
2022/02/26 05:25:25;;;;;;;13.55;11.23;;;;;;;;;;6188347;23;20161;-71
2022/02/26 05:27:51;;;;;;;17.88;11.45;;;;;;;;;;6213319;23;20012;-72
2022/02/26 05:30:17;;;;;;;16.63;11.93;;;;;;;;;;6186187;23;20039;-71
2022/02/26 05:32:43;;;;;;;16.48;10.30;;;;;;;;;;6186265;23;20086;-69
2022/02/26 05:35:09;;;;;;;15.90;12.13;;;;;;;;;;6186196;23;20430;-70
2022/02/26 05:37:35;;;;;;;13.80;11.65;;;;;;;;;;6212847;23;20012;-70
2022/02/26 05:40:01;;;;;;;17.98;10.82;;;;;;;;;;6185654;23;20103;-69
2022/02/26 05:42:29;;;;;;;15.45;8.70;;;;;;;;;;6212753;23;20017;-69
2022/02/26 05:44:55;;;;;;;12.05;10.07;;;;;;;;;;6179751;23;20016;-71
2022/02/26 05:47:21;;;;;;;12.07;9.93;;;;;;;;;;6210902;23;20088;-70
2022/02/26 05:49:47;;;;;;;15.82;11.85;;;;;;;;;;6210643;23;20103;-71
2022/02/26 05:52:13;;;;;;;16.23;11.30;;;;;;;;;;6210653;23;20017;-69
2022/02/26 05:54:39;;;;;;;13.77;10.95;;;;;;;;;;6182753;23;20024;-72
2022/02/26 05:57:07;;;;;;;12.27;10.40;;;;;;;;;;6182253;23;20047;-71
2022/02/26 05:59:33;;;;;;;13.75;10.63;;;;;;;;;;6209846;23;20016;-71
2022/02/26 06:01:59;;;;;;;13.48;10.43;;;;;;;;;;6183341;23;20023;-72
2022/02/26 06:04:25;;;;;;;15.45;10.70;;;;;;;;;;6183983;23;20023;-69
2022/02/26 06:06:51;;;;;;;14.05;11.00;;;;;;;;;;6158435;23;20091;-70
2022/02/26 06:09:17;;;;;;;18.45;10.65;;;;;;;;;;6209806;23;20437;-70
2022/02/26 06:11:43;;;;;;;15.38;11.65;;;;;;;;;;6210020;23;20424;-72
2022/02/26 06:14:09;;;;;;;17.10;11.73;;;;;;;;;;6209471;23;20496;-71
2022/02/26 06:16:36;;;;;;;15.30;11.48;;;;;;;;;;6210134;23;20020;-71
2022/02/26 06:19:02;;;;;;;19.02;11.32;;;;;;;;;;6158739;23;20036;-70
2022/02/26 06:21:28;;;;;;;14.93;11.98;;;;;;;;;;6184742;23;20019;-70
2022/02/26 06:23:54;;;;;;;16.27;11.90;;;;;;;;;;6212788;23;20020;-70
2022/02/26 06:26:20;;;;;;;14.40;11.18;;;;;;;;;;6185815;23;20016;-72
2022/02/26 06:28:46;;;;;;;15.02;10.25;;;;;;;;;;6211159;23;20019;-73
2022/02/26 06:31:12;;;;;;;13.10;9.60;;;;;;;;;;6186522;23;20468;-71
2022/02/26 06:33:38;;;;;;;11.90;8.98;;;;;;;;;;6184310;23;20067;-72
2022/02/26 06:36:04;;;;;;;12.10;10.23;;;;;;;;;;6183167;23;20040;-69
2022/02/26 06:38:30;;;;;;;14.50;9.90;;;;;;;;;;6209399;23;20188;-69
2022/02/26 06:40:56;;;;;;;14.90;10.90;;;;;;;;;;6182877;23;20112;-70
2022/02/26 06:43:22;;;;;;;10.48;9.00;;;;;;;;;;6209642;23;20013;-70
2022/02/26 06:45:48;;;;;;;15.55;11.90;;;;;;;;;;6209529;23;20035;-70
2022/02/26 06:48:14;;;;;;;13.18;10.20;;;;;;;;;;6183049;23;20215;-69
2022/02/26 06:50:39;;;;;;;13.10;10.13;;;;;;;;;;6209647;23;20008;-69
2022/02/26 06:53:05;;;;;;;16.17;10.80;;;;;;;;;;6182849;23;20024;-70
2022/02/26 06:55:31;;;;;;;16.13;11.65;;;;;;;;;;6209403;23;20024;-70
2022/02/26 06:57:57;;;;;;;13.98;11.38;;;;;;;;;;6209392;23;20030;-70
2022/02/26 07:00:23;;;;;;;18.35;11.52;;;;;;;;;;6209607;23;20103;-69
2022/02/26 07:02:49;;;;;;;15.25;10.98;;;;;;;;;;6182925;23;20445;-69
2022/02/26 07:05:15;;;;;;;21.88;11.85;;;;;;;;;;6182497;23;20024;-70
2022/02/26 07:07:41;;;;;;;16.08;10.90;;;;;;;;;;6182559;23;20008;-69
2022/02/26 07:10:07;;;;;;;22.60;14.70;;;;;;;;;;6209250;23;20024;-70
2022/02/26 07:12:33;;;;;;;22.65;13.02;;;;;;;;;;6183179;23;20353;-68
2022/02/26 07:14:59;;;;;;;22.98;14.18;;;;;;;;;;6209529;23;20111;-68
2022/02/26 07:17:25;;;;;;;20.60;11.85;;;;;;;;;;6209840;23;20059;-68
2022/02/26 07:19:51;;;;;;;33.70;17.08;;;;;;;;;;6157601;23;20461;-69
2022/02/26 07:22:17;;;;;;;31.10;15.02;;;;;;;;;;6209016;23;20008;-69
2022/02/26 07:24:43;;;;;;;24.52;13.18;;;;;;;;;;6182396;23;20491;-69
2022/02/26 07:27:11;;;;;;;23.88;12.43;;;;;;;;;;6210643;23;20016;-69
2022/02/26 07:29:37;;;;;;;20.55;12.15;;;;;;;;;;6210426;23;20099;-68
2022/02/26 07:32:03;;;;;;;22.70;12.70;;;;;;;;;;6183338;23;20461;-70
2022/02/26 07:34:29;;;;;;;19.23;11.85;;;;;;;;;;6210245;23;20147;-70
2022/02/26 07:36:55;;;;;;;29.00;14.35;;;;;;;;;;6210375;23;20017;-69
2022/02/26 07:39:24;;;;;;;19.90;13.25;;;;;;;;;;6207002;23;20008;-69
2022/02/26 07:41:50;;;;;;;14.65;9.70;;;;;;;;;;6209114;23;20020;-69
2022/02/26 07:44:16;;;;;;;23.50;12.98;;;;;;;;;;6184396;23;20124;-69
2022/02/26 07:46:42;;;;;;;22.73;13.20;;;;;;;;;;6184598;23;20016;-69
2022/02/26 07:49:08;;;;;;;20.52;13.68;;;;;;;;;;6183357;23;20031;-69
2022/02/26 07:51:38;;;;;;;27.08;14.02;;;;;;;;;;6182362;23;20050;-70
2022/02/26 07:54:04;;;;;;;24.02;13.50;;;;;;;;;;6208758;23;20047;-70
2022/02/26 07:56:30;;;;;;;26.15;12.65;;;;;;;;;;6133379;23;20024;-69
2022/02/26 07:58:56;;;;;;;20.75;12.52;;;;;;;;;;6209536;23;20009;-69
2022/02/26 08:01:22;;;;;;;21.48;12.82;;;;;;;;;;6208386;23;20381;-69
2022/02/26 08:03:49;;;;;;;15.45;11.55;;;;;;;;;;6209055;23;20429;-68
2022/02/26 08:06:15;;;;;;;28.90;13.60;;;;;;;;;;6157070;23;20017;-69
2022/02/26 08:08:46;;;;;;;20.15;12.85;;;;;;;;;;6183201;23;20063;-69
2022/02/26 08:11:12;;;;;;;17.65;10.52;;;;;;;;;;6157213;23;20481;-69
2022/02/26 08:13:38;;;;;;;22.63;15.25;;;;;;;;;;6208733;23;20023;-69
2022/02/26 08:16:04;;;;;;;17.95;10.98;;;;;;;;;;6157218;23;20402;-70
2022/02/26 08:18:30;;;;;;;17.63;11.55;;;;;;;;;;6211898;23;20015;-69
2022/02/26 08:20:57;;;;;;;27.55;15.02;;;;;;;;;;6157465;23;20016;-68
2022/02/26 08:23:23;;;;;;;26.80;15.63;;;;;;;;;;6181866;23;20016;-69
2022/02/26 08:25:51;;;;;;;20.02;11.63;;;;;;;;;;6208476;23;20087;-68
2022/02/26 08:28:17;;;;;;;22.08;14.18;;;;;;;;;;6181699;23;20047;-69
2022/02/26 08:30:44;;;;;;;19.58;10.75;;;;;;;;;;6208150;23;20017;-68
2022/02/26 08:33:10;;;;;;;22.98;12.05;;;;;;;;;;6207502;23;20012;-69
2022/02/26 08:35:36;;;;;;;20.63;12.80;;;;;;;;;;6182631;23;20412;-68
2022/02/26 08:38:01;;;;;;;18.90;12.55;;;;;;;;;;6182519;23;20012;-68
2022/02/26 08:40:27;;;;;;;16.33;10.98;;;;;;;;;;6183098;23;20491;-68
2022/02/26 08:42:56;;;;;;;19.00;13.55;;;;;;;;;;6208954;23;20019;-68
2022/02/26 08:45:22;;;;;;;25.48;12.90;;;;;;;;;;6208656;23;20095;-68
2022/02/26 08:47:48;;;;;;;22.98;12.98;;;;;;;;;;6183083;23;20029;-68
2022/02/26 08:50:16;;;;;;;17.67;13.63;;;;;;;;;;6210691;23;20076;-68
2022/02/26 08:52:42;;;;;;;12.77;9.77;;;;;;;;;;6184753;23;20572;-68
2022/02/26 08:55:08;;;;;;;14.73;9.38;;;;;;;;;;6183596;23;20024;-69
2022/02/26 08:57:34;;;;;;;9.98;7.88;;;;;;;;;;6183735;23;20065;-69
2022/02/26 09:00:00;;;;;;;17.17;10.63;;;;;;;;;;6184186;23;20544;-70
2022/02/26 09:02:26;;;;;;;14.90;12.18;;;;;;;;;;6184005;23;20016;-70
2022/02/26 09:04:52;;;;;;;23.38;11.85;;;;;;;;;;6210321;23;20471;-70
2022/02/26 09:07:18;;;;;;;23.42;13.63;;;;;;;;;;6209868;23;20459;-70
2022/02/26 09:09:44;;;;;;;15.68;12.73;;;;;;;;;;6210504;23;20013;-70
2022/02/26 09:12:10;;;;;;;19.23;12.27;;;;;;;;;;6210488;23;20549;-70
2022/02/26 09:14:36;;;;;;;16.40;12.27;;;;;;;;;;6183952;23;20432;-69
2022/02/26 09:17:02;;;;;;;16.33;13.35;;;;;;;;;;6183430;23;20019;-70
2022/02/26 09:19:28;;;;;;;21.33;12.52;;;;;;;;;;6159536;23;20023;-69
2022/02/26 09:21:54;;;;;;;11.25;8.45;;;;;;;;;;6210426;23;20012;-69
2022/02/26 09:24:20;;;;;;;19.10;12.63;;;;;;;;;;6210639;23;20043;-70
2022/02/26 09:26:46;;;;;;;17.73;11.15;;;;;;;;;;6210274;23;20009;-69
2022/02/26 09:29:12;;;;;;;14.13;11.20;;;;;;;;;;6183923;23;20023;-69
2022/02/26 09:31:41;;;;;;;19.20;11.25;;;;;;;;;;6210080;23;20008;-69
2022/02/26 09:34:09;;;;;;;14.45;10.93;;;;;;;;;;6210271;23;20059;-70
2022/02/26 09:36:36;;;;;;;16.40;11.35;;;;;;;;;;6210075;23;20016;-70
2022/02/26 09:39:02;;;;;;;18.83;11.80;;;;;;;;;;6210219;23;20095;-70
2022/02/26 09:41:28;;;;;;;18.25;10.80;;;;;;;;;;6184073;23;20104;-69
2022/02/26 09:43:54;;;;;;;18.85;11.73;;;;;;;;;;6210611;23;20051;-69
2022/02/26 09:46:20;;;;;;;16.42;11.45;;;;;;;;;;6158771;23;20399;-69
2022/02/26 09:48:46;;;;;;;17.25;11.35;;;;;;;;;;6183246;23;20028;-74
2022/02/26 09:51:13;;;;;;;15.75;10.80;;;;;;;;;;6183739;23;20040;-70
2022/02/26 09:53:40;;;;;;;21.52;11.75;;;;;;;;;;6209967;23;20066;-70
2022/02/26 09:56:06;;;;;;;15.70;10.38;;;;;;;;;;6158741;23;20115;-69
2022/02/26 09:58:32;;;;;;;16.73;10.27;;;;;;;;;;6210209;23;20552;-69
2022/02/26 10:00:58;;;;;;;13.88;7.88;;;;;;;;;;6159485;23;20022;-70
2022/02/26 10:03:25;;;;;;;20.17;11.45;;;;;;;;;;6185100;23;20092;-72
2022/02/26 10:06:04;;;;;;;16.98;10.35;;;;;;;;;;6184537;23;20146;-70
2022/02/26 10:08:39;;;;;;;14.15;10.23;;;;;;;;;;6210011;23;20618;-70
2022/02/26 10:11:06;;;;;;;21.58;10.40;;;;;;;;;;6210072;23;20040;-69
2022/02/26 10:13:39;;;;;;;15.45;8.68;;;;;;;;;;6210041;23;20036;-70
2022/02/26 10:16:05;;;;;;;16.13;10.10;;;;;;;;;;6182662;23;20469;-70
2022/02/26 10:18:31;;;;;;;20.75;11.18;;;;;;;;;;6210214;23;20019;-70
2022/02/26 10:20:59;;;;;;;18.95;11.48;;;;;;;;;;6158436;23;20095;-70
2022/02/26 10:23:25;;;;;;;29.63;11.13;;;;;;;;;;6209957;23;20067;-69
2022/02/26 10:25:51;;;;;;;15.75;10.43;;;;;;;;;;6209894;23;20016;-70
2022/02/26 10:28:17;;;;;;;17.55;10.20;;;;;;;;;;6209726;23;20084;-70
2022/02/26 10:30:47;;;;;;;17.23;10.10;;;;;;;;;;6208973;23;20346;-69
2022/02/26 10:33:14;;;;;;;14.32;10.00;;;;;;;;;;6209549;23;20023;-70
2022/02/26 10:35:48;;;;;;;12.35;7.38;;;;;;;;;;6209740;23;20028;-70
2022/02/26 10:38:21;;;;;;;10.90;6.10;;;;;;;;;;6209511;23;20339;-70
2022/02/26 10:40:48;;;;;;;4.70;4.30;;;;;;;;;;6159249;23;20024;-70
2022/02/26 10:43:14;;;;;;;8.95;6.00;;;;;;;;;;6182560;23;20013;-70
2022/02/26 10:45:40;;;;;;;6.82;4.97;;;;;;;;;;6183032;23;20034;-69
2022/02/26 10:48:06;;;;;;;4.50;3.83;;;;;;;;;;6209475;23;20508;-70
2022/02/26 10:50:34;;;;;;;4.72;4.15;;;;;;;;;;6209648;23;20046;-71
2022/02/26 10:53:01;;;;;;;8.80;6.22;;;;;;;;;;6209416;23;20334;-71
2022/02/26 10:55:46;;;;;;;6.70;6.03;;;;;;;;;;6182812;23;20044;-69
2022/02/26 10:58:16;;;;;;;6.00;5.28;;;;;;;;;;6209473;23;20488;-69
2022/02/26 11:00:42;;;;;;;4.45;4.10;;;;;;;;;;6209969;23;20016;-69
2022/02/26 11:03:09;;;;;;;4.78;4.38;;;;;;;;;;6209520;23;20405;-69
2022/02/26 11:05:35;;;;;;;6.75;5.13;;;;;;;;;;6209719;23;20091;-70
2022/02/26 11:08:01;;;;;;;5.80;5.10;;;;;;;;;;6209047;23;20094;-70
2022/02/26 11:10:27;;;;;;;7.45;5.38;;;;;;;;;;6183515;23;20421;-69
2022/02/26 11:12:53;;;;;;;7.13;5.05;;;;;;;;;;6207822;23;20079;-70
2022/02/26 11:15:19;;;;;;;9.15;5.32;;;;;;;;;;6181917;23;20495;-70
2022/02/26 11:17:45;;;;;;;12.48;5.80;;;;;;;;;;6183092;23;20113;-70
2022/02/26 11:20:15;;;;;;;6.75;5.43;;;;;;;;;;6182769;23;20048;-69
2022/02/26 11:22:42;;;;;;;9.23;5.38;;;;;;;;;;6208982;23;20473;-71
2022/02/26 11:25:08;;;;;;;6.30;5.72;;;;;;;;;;6183225;23;20024;-69
2022/02/26 11:27:34;;;;;;;13.55;5.65;;;;;;;;;;6209293;23;20570;-69
2022/02/26 11:30:00;;;;;;;4.90;4.45;;;;;;;;;;6157954;23;20718;-69
2022/02/26 11:32:28;;;;;;;6.30;5.55;;;;;;;;;;6184246;23;20124;-70
2022/02/26 11:35:13;;;;;;;6.88;5.82;;;;;;;;;;6184638;23;20469;-69
2022/02/26 11:37:39;;;;;;;7.20;6.03;;;;;;;;;;6183137;23;20388;-69
2022/02/26 11:40:12;;;;;;;7.85;5.93;;;;;;;;;;6206135;23;20472;-70
2022/02/26 11:42:38;;;;;;;7.45;6.43;;;;;;;;;;6209286;23;20019;-69
2022/02/26 11:45:05;;;;;;;5.57;5.07;;;;;;;;;;6182019;23;20354;-70
2022/02/26 11:47:34;;;;;;;12.43;6.95;;;;;;;;;;6209552;23;20019;-69
2022/02/26 11:50:02;;;;;;;8.77;7.10;;;;;;;;;;6210525;23;20100;-70
2022/02/26 11:52:37;;;;;;;7.15;6.30;;;;;;;;;;6183636;23;20354;-70
2022/02/26 11:55:05;;;;;;;7.35;6.65;;;;;;;;;;6208702;23;20025;-71
2022/02/26 11:57:31;;;;;;;10.43;6.97;;;;;;;;;;6158260;23;20016;-70
2022/02/26 12:00:10;;;;;;;10.15;6.70;;;;;;;;;;6158373;23;20012;-70
2022/02/26 12:02:40;;;;;;;9.15;6.55;;;;;;;;;;6208990;23;20351;-71
2022/02/26 12:05:07;;;;;;;7.28;5.68;;;;;;;;;;6182060;23;20524;-71
2022/02/26 12:07:36;;;;;;;13.63;7.43;;;;;;;;;;6208952;23;20012;-71
2022/02/26 12:10:06;;;;;;;7.85;4.88;;;;;;;;;;6181665;23;20012;-71
2022/02/26 12:12:33;;;;;;;8.07;6.05;;;;;;;;;;6182534;23;20009;-71
2022/02/26 12:15:02;;;;;;;9.45;5.53;;;;;;;;;;6208394;23;20057;-71
2022/02/26 12:17:29;;;;;;;5.55;5.05;;;;;;;;;;6182107;23;20044;-71
2022/02/26 12:19:55;;;;;;;7.57;5.88;;;;;;;;;;6182595;23;20036;-71
2022/02/26 12:22:29;;;;;;;6.70;5.78;;;;;;;;;;6182107;23;20031;-73
2022/02/26 12:24:55;;;;;;;6.68;6.07;;;;;;;;;;6182470;23;20022;-71
2022/02/26 12:27:31;;;;;;;8.68;6.18;;;;;;;;;;6210392;23;20012;-71
2022/02/26 12:29:57;;;;;;;5.25;4.75;;;;;;;;;;6211140;23;20028;-71
2022/02/26 12:32:57;;;;;;;6.57;5.93;;;;;;;;;;6210352;23;20456;-70
2022/02/26 12:35:27;;;;;;;10.00;6.03;;;;;;;;;;6209721;23;20024;-71
2022/02/26 12:37:55;;;;;;;3.53;3.30;;;;;;;;;;6181896;23;20605;-71
2022/02/26 12:40:22;;;;;;;6.60;5.90;;;;;;;;;;6208126;23;20066;-72
2022/02/26 12:42:48;;;;;;;8.38;6.32;;;;;;;;;;6183005;23;20732;-71
2022/02/26 12:45:15;;;;;;;8.55;4.38;;;;;;;;;;6210722;23;20016;-71
2022/02/26 12:47:41;;;;;;;8.50;6.50;;;;;;;;;;6209322;23;20008;-71
2022/02/26 12:50:16;;;;;;;6.90;6.30;;;;;;;;;;6182992;23;20024;-71
2022/02/26 12:52:46;;;;;;;6.40;5.80;;;;;;;;;;6183066;23;20036;-71
2022/02/26 12:56:00;;;;;;;13.55;5.75;;;;;;;;;;6189043;23;20055;-71
2022/02/26 12:58:32;;;;;;;4.25;3.95;;;;;;;;;;6210883;23;20074;-70
2022/02/26 13:01:12;;;;;;;9.38;6.88;;;;;;;;;;6210966;23;20023;-69
2022/02/26 13:03:43;;;;;;;6.68;5.88;;;;;;;;;;6165681;23;20146;-70
2022/02/26 13:06:09;;;;;;;8.73;6.30;;;;;;;;;;6209213;23;20039;-70
2022/02/26 13:08:35;;;;;;;8.80;5.80;;;;;;;;;;6183636;23;20020;-70
2022/02/26 13:11:08;;;;;;;8.95;5.75;;;;;;;;;;6159756;23;20460;-70
2022/02/26 13:13:39;;;;;;;13.00;6.32;;;;;;;;;;6161386;23;20028;-70
2022/02/26 13:16:07;;;;;;;9.75;7.00;;;;;;;;;;6212176;23;20070;-72
2022/02/26 13:18:36;;;;;;;10.95;6.10;;;;;;;;;;6210614;23;20346;-71
2022/02/26 13:21:02;;;;;;;7.00;5.68;;;;;;;;;;6209103;23;20043;-71
2022/02/26 13:23:29;;;;;;;6.90;5.90;;;;;;;;;;6183622;23;20008;-72
2022/02/26 13:25:58;;;;;;;6.75;6.00;;;;;;;;;;6184770;23;20485;-71
2022/02/26 13:28:25;;;;;;;7.60;5.40;;;;;;;;;;6184290;23;20058;-71
2022/02/26 13:30:51;;;;;;;5.95;5.28;;;;;;;;;;6159681;23;20032;-71
2022/02/26 13:33:21;;;;;;;7.65;5.47;;;;;;;;;;6184323;23;20361;-71
2022/02/26 13:35:46;;;;;;;6.60;5.32;;;;;;;;;;6210513;23;20135;-71
2022/02/26 13:38:13;;;;;;;8.52;5.45;;;;;;;;;;6184710;23;20008;-71
2022/02/26 13:40:39;;;;;;;9.82;5.80;;;;;;;;;;6159509;23;20078;-71
2022/02/26 13:43:08;;;;;;;7.47;6.05;;;;;;;;;;6211484;23;20013;-71
2022/02/26 13:45:34;;;;;;;7.47;6.22;;;;;;;;;;6186485;23;20047;-72
2022/02/26 13:48:00;;;;;;;8.63;5.35;;;;;;;;;;6138784;23;20416;-70
2022/02/26 13:50:26;;;;;;;12.50;6.53;;;;;;;;;;6187573;23;20099;-70
2022/02/26 13:52:52;;;;;;;8.43;6.68;;;;;;;;;;6187931;23;20008;-71
2022/02/26 13:55:18;;;;;;;8.02;4.97;;;;;;;;;;6188642;23;20020;-70
2022/02/26 13:57:45;;;;;;;9.90;7.00;;;;;;;;;;6188840;23;20047;-71
2022/02/26 14:00:15;;;;;;;9.38;7.32;;;;;;;;;;6212676;23;20016;-71
2022/02/26 14:02:41;;;;;;;10.90;6.97;;;;;;;;;;6212527;23;20058;-71
2022/02/26 14:05:08;;;;;;;9.20;7.20;;;;;;;;;;6212094;23;20056;-71
2022/02/26 14:07:34;;;;;;;9.57;6.68;;;;;;;;;;6185424;23;20008;-71
2022/02/26 14:10:00;;;;;;;8.90;7.88;;;;;;;;;;6185407;23;20020;-70
2022/02/26 14:12:27;;;;;;;16.73;8.38;;;;;;;;;;6185577;23;20015;-70
2022/02/26 14:14:57;;;;;;;14.82;7.53;;;;;;;;;;6185505;23;20024;-70
2022/02/26 14:17:24;;;;;;;9.38;7.35;;;;;;;;;;6185173;23;20078;-71
2022/02/26 14:19:50;;;;;;;11.07;8.07;;;;;;;;;;6185180;23;20012;-70
2022/02/26 14:22:15;;;;;;;11.98;8.32;;;;;;;;;;6184916;23;20096;-71
2022/02/26 14:24:42;;;;;;;12.23;8.13;;;;;;;;;;6212499;23;20422;-72
2022/02/26 14:27:12;;;;;;;12.15;7.72;;;;;;;;;;6186264;23;20020;-71
2022/02/26 14:29:38;;;;;;;9.85;8.48;;;;;;;;;;6212609;23;20009;-71
2022/02/26 14:32:07;;;;;;;13.93;8.20;;;;;;;;;;6211292;23;20028;-72
2022/02/26 14:34:33;;;;;;;14.10;8.43;;;;;;;;;;6211960;23;20013;-71
2022/02/26 14:36:59;;;;;;;22.23;12.95;;;;;;;;;;6185501;23;20032;-70
2022/02/26 14:39:25;;;;;;;24.58;14.52;;;;;;;;;;6160039;23;20392;-71
2022/02/26 14:41:52;;;;;;;29.67;15.10;;;;;;;;;;6185485;23;20012;-71
2022/02/26 14:44:24;;;;;;;31.08;16.25;;;;;;;;;;6211128;23;20086;-70
2022/02/26 14:46:51;;;;;;;34.50;17.90;;;;;;;;;;6211819;23;20020;-70
2022/02/26 14:49:17;;;;;;;36.22;19.00;;;;;;;;;;6184380;23;20024;-70
2022/02/26 14:51:45;;;;;;;36.70;18.00;;;;;;;;;;6211851;23;20370;-70
2022/02/26 14:54:11;;;;;;;26.15;15.70;;;;;;;;;;6184653;23;20023;-70
2022/02/26 14:56:37;;;;;;;34.65;15.77;;;;;;;;;;6211533;23;20024;-70
2022/02/26 14:59:02;;;;;;;34.20;15.95;;;;;;;;;;6211367;23;20520;-70
2022/02/26 15:01:29;;;;;;;23.98;12.73;;;;;;;;;;6211617;23;20019;-69
2022/02/26 15:03:55;;;;;;;27.30;14.68;;;;;;;;;;6185049;23;20009;-69
2022/02/26 15:06:21;;;;;;;24.40;13.05;;;;;;;;;;6184967;23;20020;-69
2022/02/26 15:08:47;;;;;;;18.73;11.45;;;;;;;;;;6211306;23;20017;-70